Time;durP1;ratioP1;P1;durP2;ratioP2;P2;SDS_P1;SDS_P2;PMS_P1;PMS_P2;Temp;Humidity;BMP_temperature;BMP_pressure;BME280_temperature;BME280_humidity;BME280_pressure;Samples;Min_cycle;Max_cycle;Signal;HPM_P1;HPM_P2
2022/10/30 00:02:23;;;;;;;13.67;4.13;;;;;;;13.84;100.00;99072.44;6170966;23;20204;-59
2022/10/30 00:04:51;;;;;;;14.20;3.97;;;;;;;13.86;100.00;99075.75;6166911;23;20216;-60
2022/10/30 00:07:18;;;;;;;10.63;4.83;;;;;;;13.89;100.00;99072.78;6170219;23;20207;-60
2022/10/30 00:09:44;;;;;;;11.70;3.80;;;;;;;13.86;100.00;99073.94;6165724;23;20208;-59
2022/10/30 00:12:11;;;;;;;10.97;4.20;;;;;;;13.86;100.00;99079.19;6170249;23;20208;-59
2022/10/30 00:14:37;;;;;;;13.37;4.00;;;;;;;13.90;99.99;99071.00;6166784;23;20213;-59
2022/10/30 00:17:04;;;;;;;15.13;4.73;;;;;;;13.96;100.00;99071.16;6170477;23;20204;-59
2022/10/30 00:19:31;;;;;;;13.37;3.87;;;;;;;13.90;100.00;99061.31;6167427;23;20227;-60
2022/10/30 00:22:01;;;;;;;16.27;4.77;;;;;;;13.85;100.00;99053.94;6170561;23;20646;-59
2022/10/30 00:24:28;;;;;;;17.47;4.37;;;;;;;13.83;100.00;99052.44;6169621;23;20286;-59
2022/10/30 00:26:55;;;;;;;10.67;3.67;;;;;;;13.85;100.00;99050.47;6167910;23;20599;-59
2022/10/30 00:29:22;;;;;;;13.40;4.47;;;;;;;13.89;100.00;99043.94;6170215;23;20204;-59
2022/10/30 00:31:49;;;;;;;13.10;5.43;;;;;;;13.94;100.00;99046.09;6166549;23;20283;-59
2022/10/30 00:34:15;;;;;;;14.47;4.00;;;;;;;13.94;100.00;99044.25;6168857;23;20216;-59
2022/10/30 00:36:42;;;;;;;21.73;4.60;;;;;;;13.91;100.00;99052.47;6167226;23;20223;-59
2022/10/30 00:39:10;;;;;;;12.50;3.97;;;;;;;13.94;99.55;99046.09;6143773;23;20209;-59
2022/10/30 00:41:40;;;;;;;14.23;3.73;;;;;;;13.85;99.84;99045.22;6166504;23;20591;-59
2022/10/30 00:44:38;;;;;;;13.17;4.57;;;;;;;13.80;100.00;99047.50;6170656;23;20205;-59
2022/10/30 00:47:11;;;;;;;18.83;4.57;;;;;;;13.83;99.16;99055.06;6139734;23;20319;-60
2022/10/30 00:49:50;;;;;;;15.03;4.57;;;;;;;13.77;99.46;99058.38;6165270;23;20209;-59
2022/10/30 00:52:16;;;;;;;14.63;4.13;;;;;;;13.70;99.77;99064.25;6170010;23;20271;-59
2022/10/30 00:54:44;;;;;;;12.57;4.03;;;;;;;13.68;99.69;99060.13;6167080;23;20216;-59
2022/10/30 00:57:13;;;;;;;11.07;5.03;;;;;;;13.68;99.14;99058.34;6170742;23;20270;-59
2022/10/30 00:59:41;;;;;;;15.63;5.50;;;;;;;13.90;97.99;99044.75;6140221;23;20217;-59
2022/10/30 01:02:08;;;;;;;16.13;5.13;;;;;;;13.94;98.16;99046.88;6169279;23;20662;-60
2022/10/30 01:04:37;;;;;;;17.20;5.33;;;;;;;14.07;98.10;99041.19;6164236;23;20203;-59
2022/10/30 01:07:09;;;;;;;10.87;4.20;;;;;;;14.03;97.82;99035.41;6144303;23;20238;-60
2022/10/30 01:09:37;;;;;;;11.67;4.70;;;;;;;14.01;97.86;99033.94;6164924;23;20200;-59
2022/10/30 01:12:06;;;;;;;15.03;4.70;;;;;;;13.96;98.34;99023.94;6143896;23;20223;-59
2022/10/30 01:14:35;;;;;;;11.90;4.57;;;;;;;13.87;98.12;99022.28;6165558;23;20207;-60
2022/10/30 01:17:27;;;;;;;18.63;5.30;;;;;;;13.83;99.05;99018.34;6143033;23;20927;-60
2022/10/30 01:20:02;;;;;;;17.90;4.63;;;;;;;13.85;98.85;99013.75;6139392;23;20210;-60
2022/10/30 01:22:45;;;;;;;11.67;4.77;;;;;;;13.79;99.57;99012.59;6139942;23;20204;-59
2022/10/30 01:25:26;;;;;;;15.70;4.40;;;;;;;13.69;99.60;99020.63;6143676;23;20204;-59
2022/10/30 01:28:08;;;;;;;18.47;4.50;;;;;;;13.67;99.07;99029.63;6165529;23;20286;-59
2022/10/30 01:30:47;;;;;;;14.90;4.87;;;;;;;13.64;99.27;99028.16;6139525;23;20228;-59
2022/10/30 01:33:25;;;;;;;15.40;4.60;;;;;;;13.56;99.84;99034.19;6143313;23;20286;-59
2022/10/30 01:35:58;;;;;;;17.93;4.60;;;;;;;13.52;98.32;99032.88;6139678;23;20247;-58
2022/10/30 01:38:31;;;;;;;20.10;4.70;;;;;;;13.55;98.18;99016.00;6143567;23;20208;-59
2022/10/30 01:40:57;;;;;;;13.80;5.10;;;;;;;13.67;97.35;99016.50;6140721;23;20226;-59
2022/10/30 01:43:27;;;;;;;18.10;5.00;;;;;;;13.64;97.91;99024.72;6142837;23;20282;-59
2022/10/30 01:46:10;;;;;;;15.87;4.73;;;;;;;13.56;98.17;99012.41;6140012;23;20584;-58
2022/10/30 01:49:02;;;;;;;12.10;4.30;;;;;;;13.47;98.79;99010.75;6163434;23;20216;-59
2022/10/30 01:51:41;;;;;;;15.87;5.23;;;;;;;13.36;100.00;99007.41;6143053;23;20227;-59
2022/10/30 01:54:20;;;;;;;11.03;4.57;;;;;;;13.29;100.00;99001.97;6140238;23;20201;-59
2022/10/30 01:56:57;;;;;;;14.27;4.37;;;;;;;13.24;99.72;99006.88;6140159;23;20238;-59
2022/10/30 01:59:31;;;;;;;11.97;4.10;;;;;;;13.12;100.00;99003.72;6168385;23;20680;-59
2022/10/30 02:01:58;;;;;;;14.30;4.73;;;;;;;13.03;100.00;99009.91;6166497;23;20585;-59
2022/10/30 02:04:25;;;;;;;14.10;4.37;;;;;;;12.94;100.00;99011.66;6143156;23;20200;-58
2022/10/30 02:06:53;;;;;;;15.50;4.43;;;;;;;12.86;100.00;99014.25;6165092;23;20207;-59
2022/10/30 02:09:20;;;;;;;10.63;4.27;;;;;;;12.81;100.00;99011.28;6143318;23;20580;-59
2022/10/30 02:11:51;;;;;;;13.33;5.40;;;;;;;12.85;100.00;99010.00;6138498;23;20211;-58
2022/10/30 02:14:21;;;;;;;16.77;4.27;;;;;;;12.77;100.00;99013.38;6142881;23;20229;-59
2022/10/30 02:16:52;;;;;;;16.27;4.67;;;;;;;12.73;100.00;99012.03;6139964;23;20235;-59
2022/10/30 02:19:20;;;;;;;11.37;4.03;;;;;;;12.72;100.00;99015.63;6167375;23;20692;-58
2022/10/30 02:21:49;;;;;;;15.20;4.80;;;;;;;12.63;100.00;99011.34;6148665;23;20211;-59
2022/10/30 02:24:15;;;;;;;15.97;5.03;;;;;;;12.59;100.00;99010.81;6167784;23;20204;-58
2022/10/30 02:26:42;;;;;;;17.57;4.63;;;;;;;12.54;100.00;99015.69;6164573;23;20280;-59
2022/10/30 02:29:09;;;;;;;16.13;4.67;;;;;;;12.45;100.00;99017.44;6168588;23;20660;-59
2022/10/30 02:31:37;;;;;;;13.97;4.90;;;;;;;12.38;100.00;99009.38;6139737;23;20651;-59
2022/10/30 02:34:04;;;;;;;15.93;5.23;;;;;;;12.36;100.00;99005.28;6167589;23;20224;-59
2022/10/30 02:36:32;;;;;;;14.40;4.97;;;;;;;12.34;100.00;99008.03;6164484;23;20214;-58
2022/10/30 02:39:00;;;;;;;19.00;5.10;;;;;;;12.30;100.00;99005.88;6168732;23;20206;-59
2022/10/30 02:41:26;;;;;;;11.03;4.53;;;;;;;12.25;100.00;99009.78;6167891;23;20533;-57
2022/10/30 02:43:53;;;;;;;15.43;4.93;;;;;;;12.23;100.00;99001.25;6139063;23;20203;-59
2022/10/30 02:46:20;;;;;;;16.13;4.33;;;;;;;12.25;100.00;99003.72;6168947;23;20206;-59
2022/10/30 02:48:48;;;;;;;15.90;4.73;;;;;;;12.36;100.00;99006.09;6161811;23;20669;-59
2022/10/30 02:51:15;;;;;;;11.23;4.53;;;;;;;12.37;100.00;99004.31;6167515;23;20660;-59
2022/10/30 02:53:42;;;;;;;13.63;4.47;;;;;;;12.35;100.00;99011.50;6163688;23;20203;-59
2022/10/30 02:56:12;;;;;;;22.00;5.23;;;;;;;12.30;100.00;99008.50;6168888;23;20210;-59
2022/10/30 02:58:40;;;;;;;11.60;3.90;;;;;;;12.30;100.00;99013.75;6141376;23;20230;-59
2022/10/30 03:01:09;;;;;;;15.23;4.17;;;;;;;12.21;100.00;99013.66;6146285;23;20266;-59
2022/10/30 03:03:36;;;;;;;11.53;3.43;;;;;;;12.15;100.00;99005.63;6143667;23;20227;-59
2022/10/30 03:06:04;;;;;;;11.17;3.77;;;;;;;12.06;100.00;99016.03;6148950;23;20203;-60
2022/10/30 03:08:30;;;;;;;13.23;3.67;;;;;;;12.03;100.00;99013.69;6172380;23;20206;-60
2022/10/30 03:11:02;;;;;;;13.73;3.63;;;;;;;11.98;100.00;99015.06;6174319;23;20219;-59
2022/10/30 03:13:31;;;;;;;14.70;3.43;;;;;;;11.94;100.00;99011.94;6150123;23;20595;-59
2022/10/30 03:16:02;;;;;;;11.97;3.43;;;;;;;12.00;100.00;99010.53;6147532;23;20218;-60
2022/10/30 03:18:32;;;;;;;9.07;3.20;;;;;;;12.01;100.00;99009.56;6147158;23;20244;-59
2022/10/30 03:21:04;;;;;;;16.43;3.27;;;;;;;12.01;100.00;99009.56;6175636;23;20237;-59
2022/10/30 03:23:31;;;;;;;13.57;2.67;;;;;;;12.08;98.36;99003.59;6172809;23;20210;-60
2022/10/30 03:26:01;;;;;;;7.87;2.20;;;;;;;12.11;96.37;99012.94;6177182;23;20286;-59
2022/10/30 03:28:31;;;;;;;13.90;2.93;;;;;;;12.11;96.10;98997.22;6150619;23;20235;-60
2022/10/30 03:30:59;;;;;;;12.37;2.57;;;;;;;12.07;95.07;99006.34;6147221;23;20214;-60
2022/10/30 03:33:26;;;;;;;14.93;2.83;;;;;;;12.08;94.48;98992.31;6175074;23;20207;-60
2022/10/30 03:35:52;;;;;;;10.73;2.37;;;;;;;12.05;95.54;98998.69;6169519;23;20222;-60
2022/10/30 03:38:19;;;;;;;12.43;2.63;;;;;;;12.07;95.34;98998.50;6176169;23;20204;-61
2022/10/30 03:40:45;;;;;;;9.33;2.70;;;;;;;12.05;92.63;98997.84;6146301;23;20294;-61
2022/10/30 03:43:12;;;;;;;12.43;1.93;;;;;;;12.20;89.71;98998.09;6174699;23;20206;-60
2022/10/30 03:45:40;;;;;;;6.83;1.80;;;;;;;12.14;90.98;98999.56;6170600;23;20211;-61
2022/10/30 03:48:06;;;;;;;5.83;2.23;;;;;;;12.25;86.65;99003.72;6174260;23;20209;-62
2022/10/30 03:50:33;;;;;;;3.97;1.40;;;;;;;12.40;83.62;98996.94;6170966;23;20643;-61
2022/10/30 03:53:02;;;;;;;3.83;1.10;;;;;;;12.64;82.71;98994.66;6148709;23;20227;-61
2022/10/30 03:55:29;;;;;;;12.83;1.67;;;;;;;12.54;81.60;99008.69;6174391;23;20206;-61
2022/10/30 03:57:58;;;;;;;3.80;1.40;;;;;;;12.53;80.78;98999.19;6146818;23;20222;-62
2022/10/30 04:00:24;;;;;;;8.27;2.05;;;;;;;12.63;78.65;99003.50;6148820;23;20411;-61
2022/10/30 04:03:00;;;;;;;9.57;1.43;;;;;;;12.65;78.57;99010.19;6170424;23;20214;-61
2022/10/30 04:05:29;;;;;;;6.23;1.53;;;;;;;12.69;80.44;99015.97;6174368;23;20214;-61
2022/10/30 04:07:58;;;;;;;5.00;1.47;;;;;;;12.69;80.92;99014.16;6170782;23;20281;-60
2022/10/30 04:10:26;;;;;;;5.20;1.73;;;;;;;12.58;80.54;99014.41;6149253;23;20212;-60
2022/10/30 04:13:00;;;;;;;5.67;1.80;;;;;;;12.63;81.89;99006.91;6146178;23;20218;-60
2022/10/30 04:15:27;;;;;;;6.67;1.33;;;;;;;12.56;81.58;99011.13;6149145;23;20601;-61
2022/10/30 04:17:53;;;;;;;4.77;1.73;;;;;;;12.48;80.97;99005.84;6168995;23;20273;-60
2022/10/30 04:20:23;;;;;;;5.87;1.43;;;;;;;12.38;82.70;99004.13;6174447;23;20212;-60
2022/10/30 04:22:54;;;;;;;8.97;1.87;;;;;;;12.32;80.93;99001.31;6172507;23;20211;-60
2022/10/30 04:25:22;;;;;;;8.00;1.77;;;;;;;12.33;79.30;99002.97;6149955;23;20200;-60
2022/10/30 04:27:51;;;;;;;6.37;1.30;;;;;;;12.29;80.21;98999.81;6171088;23;20211;-61
2022/10/30 04:33:00;;;;;;;6.90;1.73;;;;;;;12.34;80.96;99000.19;6166995;23;20231;-61
2022/10/30 04:35:30;;;;;;;5.97;1.33;;;;;;;12.40;78.23;98991.72;6150084;23;20292;-61
2022/10/30 04:37:59;;;;;;;4.70;1.30;;;;;;;12.62;75.07;98994.00;6146892;23;20215;-61
2022/10/30 04:40:28;;;;;;;5.57;1.30;;;;;;;12.65;77.24;98999.72;6149875;23;20261;-61
2022/10/30 04:42:59;;;;;;;7.60;1.33;;;;;;;12.63;75.84;99000.88;6146689;23;20211;-61
2022/10/30 04:45:27;;;;;;;3.77;1.23;;;;;;;12.63;73.86;98995.63;6150082;23;20214;-61
2022/10/30 04:48:00;;;;;;;3.73;1.13;;;;;;;12.77;77.13;98996.84;6147197;23;20669;-60
2022/10/30 04:50:27;;;;;;;2.47;1.00;;;;;;;12.71;75.33;98993.06;6149439;23;20206;-61
2022/10/30 04:53:00;;;;;;;3.10;1.40;;;;;;;12.72;73.06;98999.09;6172198;23;20294;-61
2022/10/30 04:55:27;;;;;;;4.70;1.27;;;;;;;12.79;72.80;98993.06;6149858;23;20851;-60
2022/10/30 04:57:55;;;;;;;2.50;1.07;;;;;;;12.77;73.17;98989.00;6145466;23;20945;-61
2022/10/30 05:00:22;;;;;;;8.82;1.10;;;;;;;12.72;75.06;98991.25;6174831;23;20651;-61
2022/10/30 05:02:48;;;;;;;5.40;1.10;;;;;;;12.74;73.00;98987.47;6145377;23;20222;-61
2022/10/30 05:05:15;;;;;;;5.43;1.20;;;;;;;12.63;72.83;98993.00;6148508;23;20214;-61
2022/10/30 05:07:42;;;;;;;4.70;0.93;;;;;;;12.64;73.35;98986.81;6170209;23;20211;-61
2022/10/30 05:10:13;;;;;;;1.77;0.80;;;;;;;12.62;73.29;98988.75;6173700;23;20214;-61
2022/10/30 05:12:41;;;;;;;1.27;0.90;;;;;;;12.63;71.87;98979.91;6170019;23;20290;-61
2022/10/30 05:15:08;;;;;;;4.60;0.90;;;;;;;12.73;69.68;98982.41;6173411;23;20211;-61
2022/10/30 05:17:37;;;;;;;8.70;1.00;;;;;;;12.76;71.32;98972.44;6145594;23;20214;-61
2022/10/30 05:20:05;;;;;;;3.17;0.80;;;;;;;12.76;74.01;98972.44;6174188;23;20541;-61
2022/10/30 05:22:32;;;;;;;2.60;0.80;;;;;;;12.78;72.47;98969.66;6169076;23;20931;-61
2022/10/30 05:24:58;;;;;;;1.83;1.00;;;;;;;12.78;71.35;98967.84;6173677;23;20209;-61
2022/10/30 05:27:26;;;;;;;4.27;0.90;;;;;;;12.86;73.31;98977.56;6149406;23;20211;-61
2022/10/30 05:29:53;;;;;;;4.67;1.10;;;;;;;12.95;73.48;98970.56;6170405;23;20290;-61
2022/10/30 05:32:19;;;;;;;5.13;1.07;;;;;;;12.97;72.57;98977.28;6175578;23;20211;-61
2022/10/30 05:34:48;;;;;;;5.30;1.10;;;;;;;13.06;69.16;98975.50;6145292;23;20422;-61
2022/10/30 05:37:19;;;;;;;5.20;0.90;;;;;;;13.01;71.92;98971.75;6173909;23;20211;-61
2022/10/30 05:39:46;;;;;;;3.63;1.63;;;;;;;12.98;71.22;98973.69;6146172;23;20227;-61
2022/10/30 05:42:24;;;;;;;1.90;0.90;;;;;;;12.93;72.17;98972.50;6148690;23;20580;-61
2022/10/30 05:44:53;;;;;;;4.43;1.10;;;;;;;12.91;71.97;98977.94;6145441;23;20206;-61
2022/10/30 05:47:20;;;;;;;2.30;1.13;;;;;;;12.97;73.91;98972.06;6173693;23;20262;-61
2022/10/30 05:49:51;;;;;;;3.73;1.43;;;;;;;12.91;72.29;98977.94;6145993;23;20282;-61
2022/10/30 05:52:20;;;;;;;3.43;1.30;;;;;;;13.13;68.62;98994.06;6173979;23;20243;-61
2022/10/30 05:54:48;;;;;;;4.77;1.13;;;;;;;13.01;69.87;98997.94;6145588;23;20815;-61
2022/10/30 05:57:21;;;;;;;7.13;1.30;;;;;;;12.85;72.89;99000.31;6173783;23;20207;-61
2022/10/30 05:59:48;;;;;;;2.53;1.00;;;;;;;12.77;73.58;99009.94;6170102;23;20220;-61
2022/10/30 06:02:16;;;;;;;6.10;2.77;;;;;;;12.72;79.23;99010.38;6173787;23;20537;-61
2022/10/30 06:04:43;;;;;;;6.60;2.63;;;;;;;12.55;80.46;99014.72;6171763;23;20206;-61
2022/10/30 06:07:12;;;;;;;6.20;2.20;;;;;;;12.40;82.43;99011.84;6174297;23;20203;-61
2022/10/30 06:09:39;;;;;;;6.27;1.93;;;;;;;12.25;82.45;99015.00;6172408;23;20204;-61
2022/10/30 06:12:24;;;;;;;4.27;2.27;;;;;;;12.13;82.36;99011.00;6175754;23;20290;-61
2022/10/30 06:14:59;;;;;;;4.87;1.63;;;;;;;12.06;83.08;99016.03;6146247;23;20245;-61
2022/10/30 06:17:30;;;;;;;16.60;10.10;;;;;;;12.02;82.85;99012.06;6173971;23;20207;-61
2022/10/30 06:20:11;;;;;;;7.53;2.97;;;;;;;12.01;84.00;99014.81;6146557;23;20217;-61
2022/10/30 06:22:54;;;;;;;12.63;3.73;;;;;;;11.95;85.38;99013.59;6172325;23;20576;-61
2022/10/30 06:25:23;;;;;;;6.93;2.13;;;;;;;11.89;85.13;99007.16;6149161;23;20214;-61
2022/10/30 06:27:57;;;;;;;6.03;2.00;;;;;;;12.22;81.04;99006.63;6146777;23;20219;-61
2022/10/30 06:30:25;;;;;;;5.97;1.70;;;;;;;12.17;82.17;98999.25;6176465;23;20210;-60
2022/10/30 06:32:57;;;;;;;5.80;2.27;;;;;;;12.16;82.79;98999.41;6171467;23;20207;-61
2022/10/30 06:35:24;;;;;;;14.00;4.50;;;;;;;12.21;83.75;98997.97;6176125;23;20210;-60
2022/10/30 06:37:52;;;;;;;8.80;1.93;;;;;;;12.23;83.43;98997.81;6172676;23;20229;-61
2022/10/30 06:40:19;;;;;;;7.93;3.30;;;;;;;12.29;82.57;99002.44;6151240;23;20206;-61
2022/10/30 06:43:09;;;;;;;7.97;4.03;;;;;;;12.32;83.78;98996.09;6172022;23;20221;-60
2022/10/30 06:45:39;;;;;;;10.23;2.77;;;;;;;12.35;83.73;98995.78;6147408;23;20210;-61
2022/10/30 06:48:08;;;;;;;5.77;3.60;;;;;;;12.42;81.71;99001.22;6175483;23;20238;-61
2022/10/30 06:50:40;;;;;;;6.20;1.93;;;;;;;12.52;82.82;99005.38;6172018;23;20314;-61
2022/10/30 06:53:07;;;;;;;8.27;2.20;;;;;;;12.55;84.41;99012.09;6150178;23;20207;-61
2022/10/30 06:55:34;;;;;;;5.30;1.63;;;;;;;12.57;82.04;99009.34;6157252;23;20328;-61
2022/10/30 06:58:18;;;;;;;5.57;1.60;;;;;;;12.72;80.31;99017.44;6129889;23;20207;-61
2022/10/30 07:01:16;;;;;;;2.27;1.40;;;;;;;12.75;81.08;99017.13;6123933;23;20258;-61
2022/10/30 07:04:02;;;;;;;6.70;1.43;;;;;;;12.90;78.31;99020.81;6172458;23;20277;-61
2022/10/30 07:06:29;;;;;;;5.70;1.67;;;;;;;12.95;77.84;99017.72;6150593;23;20213;-61
2022/10/30 07:08:55;;;;;;;6.80;1.60;;;;;;;13.01;79.34;99014.47;6147223;23;20569;-61
2022/10/30 07:11:22;;;;;;;6.07;1.63;;;;;;;13.14;76.87;99017.47;6175074;23;20204;-61
2022/10/30 07:14:08;;;;;;;4.73;1.40;;;;;;;13.14;81.25;99017.47;6173294;23;20300;-61
2022/10/30 07:16:39;;;;;;;5.23;1.60;;;;;;;13.19;78.81;99021.44;6146597;23;20204;-60
2022/10/30 07:19:07;;;;;;;5.93;1.40;;;;;;;13.22;79.15;99021.13;6150397;23;20211;-61
2022/10/30 07:21:34;;;;;;;7.23;1.63;;;;;;;13.27;78.05;99027.50;6171919;23;20203;-61
2022/10/30 07:24:05;;;;;;;5.70;1.43;;;;;;;13.30;78.36;99021.16;6174891;23;20279;-61
2022/10/30 07:26:43;;;;;;;5.03;1.20;;;;;;;13.35;77.99;99029.34;6147165;23;20709;-61
2022/10/30 07:29:29;;;;;;;4.80;1.60;;;;;;;13.39;80.34;99022.81;6175223;23;20298;-61
2022/10/30 07:32:19;;;;;;;4.33;1.53;;;;;;;13.40;79.93;99024.47;6161672;23;20216;-61
2022/10/30 07:34:52;;;;;;;3.10;1.90;;;;;;;13.45;81.09;99026.63;6171368;23;20270;-61
2022/10/30 07:37:29;;;;;;;6.87;1.97;;;;;;;13.48;80.18;99030.75;6175182;23;20594;-61
2022/10/30 07:40:01;;;;;;;7.40;1.50;;;;;;;13.50;80.27;99032.22;6171049;23;20212;-61
2022/10/30 07:42:47;;;;;;;6.27;1.53;;;;;;;13.56;80.58;99033.38;6172468;23;20287;-61
2022/10/30 07:45:32;;;;;;;3.20;1.77;;;;;;;13.59;81.68;99043.56;6173281;23;20277;-61
2022/10/30 07:48:18;;;;;;;6.13;2.13;;;;;;;13.65;81.21;99047.34;6176855;23;20217;-61
2022/10/30 07:50:49;;;;;;;5.43;1.90;;;;;;;13.70;81.87;99040.63;6171116;23;20717;-61
2022/10/30 07:53:15;;;;;;;5.03;1.60;;;;;;;13.73;82.11;99037.69;6149639;23;20535;-61
2022/10/30 07:55:42;;;;;;;3.03;1.80;;;;;;;13.80;80.77;99044.91;6146807;23;20657;-61
2022/10/30 07:58:44;;;;;;;5.13;1.93;;;;;;;13.90;80.69;99032.44;6173234;23;20277;-61
2022/10/30 08:01:32;;;;;;;7.80;2.30;;;;;;;13.96;80.56;99031.00;6170976;23;20210;-61
2022/10/30 08:04:10;;;;;;;7.23;2.00;;;;;;;14.03;80.62;99032.78;6174805;23;20210;-61
2022/10/30 08:06:38;;;;;;;8.57;2.70;;;;;;;14.08;80.62;99042.81;6171441;23;20218;-61
2022/10/30 08:09:05;;;;;;;5.83;2.20;;;;;;;14.15;83.21;99038.56;6175210;23;20203;-61
2022/10/30 08:11:32;;;;;;;9.50;3.10;;;;;;;14.20;82.49;99045.94;6171549;23;20240;-61
2022/10/30 08:14:00;;;;;;;14.07;2.73;;;;;;;14.23;83.30;99042.97;6149857;23;20224;-61
2022/10/30 08:16:26;;;;;;;6.47;2.37;;;;;;;14.29;82.94;99052.81;6176590;23;20246;-61
2022/10/30 08:18:54;;;;;;;7.60;2.50;;;;;;;14.36;82.96;99045.09;6171014;23;20212;-61
2022/10/30 08:21:24;;;;;;;7.33;2.50;;;;;;;14.45;83.15;99048.56;6149878;23;20296;-61
2022/10/30 08:24:21;;;;;;;6.87;1.90;;;;;;;14.53;82.87;99050.34;6159093;23;20645;-61
2022/10/30 08:26:51;;;;;;;3.30;1.77;;;;;;;14.62;82.59;99049.34;6170160;23;20206;-61
2022/10/30 08:29:18;;;;;;;8.83;2.00;;;;;;;14.69;81.04;99055.59;6150155;23;20249;-61
2022/10/30 08:31:48;;;;;;;9.93;2.00;;;;;;;14.73;81.96;99050.84;6170731;23;20229;-61
2022/10/30 08:34:25;;;;;;;8.20;2.00;;;;;;;14.79;80.17;99049.34;6175513;23;20210;-61
2022/10/30 08:36:55;;;;;;;6.50;2.43;;;;;;;14.84;79.15;99047.03;6170941;23;20294;-61
2022/10/30 08:39:23;;;;;;;5.70;2.33;;;;;;;14.90;77.62;99049.81;6176024;23;20594;-61
2022/10/30 08:42:07;;;;;;;7.87;2.07;;;;;;;15.04;75.58;99048.31;6146486;23;20243;-61
2022/10/30 08:44:40;;;;;;;5.40;2.10;;;;;;;15.20;75.59;99055.28;6146064;23;20227;-61
2022/10/30 08:47:26;;;;;;;10.50;2.10;;;;;;;15.34;76.79;99047.69;6175630;23;20310;-61
2022/10/30 08:49:52;;;;;;;4.90;2.30;;;;;;;15.43;79.55;99051.91;6170405;23;20516;-61
2022/10/30 08:52:22;;;;;;;7.47;2.40;;;;;;;15.50;77.89;99044.97;6149257;23;20222;-61
2022/10/30 08:54:55;;;;;;;4.03;2.00;;;;;;;15.63;77.62;99044.41;6170589;23;20212;-61
2022/10/30 08:57:24;;;;;;;10.03;2.30;;;;;;;15.79;77.14;99050.56;6174579;23;20209;-61
2022/10/30 08:59:53;;;;;;;4.03;2.17;;;;;;;15.92;75.80;99040.31;6170487;23;20212;-61
2022/10/30 09:02:51;;;;;;;2.63;1.50;;;;;;;16.05;74.79;99037.09;6172632;23;20223;-61
2022/10/30 09:05:37;;;;;;;4.37;1.80;;;;;;;16.18;74.77;99041.78;6172068;23;20744;-61
2022/10/30 09:08:32;;;;;;;5.37;2.27;;;;;;;16.34;74.18;99038.16;6172447;23;20214;-61
2022/10/30 09:11:09;;;;;;;4.23;2.10;;;;;;;16.52;73.07;99032.56;6174018;23;20216;-61
2022/10/30 09:13:36;;;;;;;8.10;1.70;;;;;;;16.68;71.78;99036.88;6170480;23;20516;-61
2022/10/30 09:16:05;;;;;;;6.20;2.03;;;;;;;16.83;72.05;99038.72;6173743;23;20203;-61
2022/10/30 09:18:35;;;;;;;8.27;2.10;;;;;;;16.95;72.58;99036.41;6146086;23;20719;-61
2022/10/30 09:21:02;;;;;;;6.03;2.57;;;;;;;17.07;69.88;99040.28;6174120;23;20217;-61
2022/10/30 09:23:32;;;;;;;4.70;2.00;;;;;;;17.18;70.97;99041.63;6145056;23;20249;-64
2022/10/30 09:26:19;;;;;;;7.33;3.40;;;;;;;17.29;69.40;99036.88;6174864;23;20289;-61
2022/10/30 09:28:55;;;;;;;7.13;3.37;;;;;;;17.34;68.41;99045.88;6170053;23;20214;-61
2022/10/30 09:31:40;;;;;;;10.03;2.90;;;;;;;17.37;67.96;99042.88;6171647;23;20213;-61
2022/10/30 09:34:09;;;;;;;10.33;3.73;;;;;;;17.45;67.82;99055.13;6149104;23;20534;-61
2022/10/30 09:36:50;;;;;;;9.03;3.13;;;;;;;17.47;69.04;99058.41;6146207;23;20203;-61
2022/10/30 09:39:18;;;;;;;10.03;3.63;;;;;;;17.56;67.08;99062.59;6174220;23;20214;-61
2022/10/30 09:42:03;;;;;;;10.80;4.33;;;;;;;17.45;67.84;99062.25;6145442;23;20571;-61
2022/10/30 09:44:45;;;;;;;13.47;3.53;;;;;;;17.39;66.87;99069.06;6170473;23;20234;-61
2022/10/30 09:47:22;;;;;;;10.50;3.47;;;;;;;17.50;66.47;99059.84;6174073;23;20675;-61
2022/10/30 09:49:58;;;;;;;8.83;3.30;;;;;;;17.48;66.37;99065.31;6170560;23;20645;-61
2022/10/30 09:52:29;;;;;;;6.57;3.40;;;;;;;17.64;66.33;99060.84;6149471;23;20217;-61
2022/10/30 09:55:15;;;;;;;16.13;3.70;;;;;;;17.67;65.76;99065.75;6171111;23;20257;-61
2022/10/30 09:57:51;;;;;;;13.03;3.53;;;;;;;17.77;65.51;99060.16;6146138;23;20206;-61
2022/10/30 10:00:21;;;;;;;9.30;3.77;;;;;;;17.73;65.09;99070.28;6149284;23;20214;-61
2022/10/30 10:03:10;;;;;;;9.17;3.87;;;;;;;17.78;65.28;99067.06;6170600;23;20582;-61
2022/10/30 10:05:53;;;;;;;9.10;3.60;;;;;;;17.71;65.38;99069.66;6170288;23;20210;-61
2022/10/30 10:08:56;;;;;;;9.83;3.70;;;;;;;17.84;65.42;99064.50;6170488;23;20214;-61
2022/10/30 10:11:36;;;;;;;10.80;3.70;;;;;;;17.94;65.62;99064.19;6172034;23;20213;-61
2022/10/30 10:14:09;;;;;;;9.07;3.57;;;;;;;17.97;64.62;99061.19;6149028;23;20638;-61
2022/10/30 10:16:40;;;;;;;10.63;3.43;;;;;;;18.07;65.90;99060.88;6170630;23;20213;-61
2022/10/30 10:19:13;;;;;;;6.87;3.13;;;;;;;18.20;66.07;99060.19;6175619;23;20258;-61
2022/10/30 10:21:45;;;;;;;8.97;3.23;;;;;;;18.28;67.38;99052.16;6171847;23;20207;-61
2022/10/30 10:24:18;;;;;;;11.90;3.63;;;;;;;18.27;68.19;99053.16;6175346;23;20207;-61
2022/10/30 10:26:49;;;;;;;10.47;3.67;;;;;;;18.28;68.09;99046.03;6170602;23;20929;-61
2022/10/30 10:29:50;;;;;;;11.63;4.03;;;;;;;18.31;68.09;99050.94;6175701;23;20199;-61
2022/10/30 10:32:45;;;;;;;13.47;3.97;;;;;;;18.27;68.20;99047.03;6150251;23;20210;-61
2022/10/30 10:35:31;;;;;;;8.93;4.07;;;;;;;18.39;67.86;99055.28;6172332;23;20208;-61
2022/10/30 10:38:05;;;;;;;8.80;3.70;;;;;;;18.49;66.62;99055.78;6172604;23;20210;-61
2022/10/30 10:40:44;;;;;;;9.87;3.80;;;;;;;18.56;67.81;99053.97;6171606;23;20596;-61
2022/10/30 10:43:25;;;;;;;12.83;4.50;;;;;;;18.61;66.45;99055.22;6172884;23;20235;-61
2022/10/30 10:46:06;;;;;;;16.10;4.10;;;;;;;18.77;66.64;99062.06;6155990;23;20223;-57
2022/10/30 10:48:52;;;;;;;14.43;4.20;;;;;;;18.83;66.20;99056.78;6171379;23;20205;-58
2022/10/30 10:51:22;;;;;;;19.00;5.27;;;;;;;18.88;66.49;99059.66;6175039;23;20255;-56
2022/10/30 10:53:54;;;;;;;10.70;4.30;;;;;;;18.94;65.77;99051.97;6171587;23;20211;-58
2022/10/30 10:56:29;;;;;;;13.47;4.10;;;;;;;19.02;65.00;99055.31;6175600;23;20211;-56
2022/10/30 10:58:59;;;;;;;15.57;4.30;;;;;;;19.17;65.76;99049.91;6171656;23;20262;-57
2022/10/30 11:01:34;;;;;;;8.40;3.97;;;;;;;19.22;67.46;99051.94;6173699;23;20650;-58
2022/10/30 11:04:05;;;;;;;11.40;4.23;;;;;;;19.37;65.54;99054.47;6172011;23;20580;-56
2022/10/30 11:06:35;;;;;;;12.77;4.17;;;;;;;19.56;65.02;99052.09;6171546;23;20201;-57
2022/10/30 11:09:15;;;;;;;6.87;3.80;;;;;;;19.72;64.49;99045.59;6175182;23;20846;-57
2022/10/30 11:11:42;;;;;;;11.77;3.73;;;;;;;19.87;64.42;99046.25;6171532;23;20287;-57
2022/10/30 11:14:14;;;;;;;7.23;3.73;;;;;;;19.94;64.44;99040.19;6173979;23;20243;-57
2022/10/30 11:16:56;;;;;;;9.50;3.83;;;;;;;20.09;63.61;99047.94;6172345;23;20279;-56
2022/10/30 11:19:25;;;;;;;10.97;4.20;;;;;;;20.16;63.68;99044.25;6176342;23;20266;-57
2022/10/30 11:21:55;;;;;;;7.50;3.30;;;;;;;20.28;63.77;99035.69;6172708;23;20223;-54
2022/10/30 11:24:27;;;;;;;10.60;3.53;;;;;;;20.30;64.44;99045.09;6176510;23;20639;-57
2022/10/30 11:26:55;;;;;;;12.07;4.77;;;;;;;20.16;63.64;99040.78;6171849;23;20313;-57
2022/10/30 11:29:24;;;;;;;11.57;3.90;;;;;;;20.23;63.52;99038.13;6176244;23;20719;-58
2022/10/30 11:32:04;;;;;;;10.10;4.57;;;;;;;20.20;64.42;99040.19;6173482;23;20315;-57
2022/10/30 11:34:36;;;;;;;12.53;4.50;;;;;;;20.12;63.76;99043.06;6176440;23;20250;-57
2022/10/30 11:37:03;;;;;;;10.57;4.37;;;;;;;19.90;65.36;99039.75;6172803;23;20209;-58
2022/10/30 11:39:32;;;;;;;11.23;4.23;;;;;;;20.01;64.58;99036.50;6176633;23;20267;-59
2022/10/30 11:42:05;;;;;;;11.00;4.13;;;;;;;19.91;63.75;99042.22;6173730;23;20211;-56
2022/10/30 11:44:36;;;;;;;12.93;4.17;;;;;;;19.74;64.58;99041.72;6173079;23;20232;-57
2022/10/30 11:47:06;;;;;;;12.30;4.83;;;;;;;19.77;65.81;99043.16;6176948;23;20207;-57
2022/10/30 11:49:39;;;;;;;12.40;4.53;;;;;;;19.72;65.42;99041.09;6172995;23;20582;-55
2022/10/30 11:52:07;;;;;;;10.50;4.10;;;;;;;19.74;66.48;99039.06;6176407;23;20208;-57
2022/10/30 11:54:37;;;;;;;15.13;4.70;;;;;;;19.77;66.56;99038.66;6173177;23;20208;-55
2022/10/30 11:57:11;;;;;;;8.97;4.00;;;;;;;19.84;66.51;99038.69;6177095;23;20192;-58